Time;durP1;ratioP1;P1;durP2;ratioP2;P2;SDS_P1;SDS_P2;PMS_P1;PMS_P2;Temp;Humidity;BMP_temperature;BMP_pressure;BME280_temperature;BME280_humidity;BME280_pressure;Samples;Min_cycle;Max_cycle;Signal;HPM_P1;HPM_P2
2022/01/21 00:00:52;;;;;;;13.75;3.97;;;;;;;3.44;85.34;99365.84;4073745;29;20317;-84
2022/01/21 00:02:57;;;;;;;10.68;3.85;;;;;;;3.44;85.96;99368.44;4075001;29;20237;-84
2022/01/21 00:05:00;;;;;;;10.27;4.95;;;;;;;3.44;85.00;99370.13;4072242;29;20221;-84
2022/01/21 00:07:04;;;;;;;13.60;4.20;;;;;;;3.40;85.07;99371.94;4065675;29;20221;-84
2022/01/21 00:09:07;;;;;;;8.77;4.63;;;;;;;3.39;85.12;99370.22;4071962;29;20221;-84
2022/01/21 00:11:11;;;;;;;7.95;4.82;;;;;;;3.38;84.68;99371.13;4075157;29;20237;-84
2022/01/21 00:13:20;;;;;;;8.70;4.68;;;;;;;3.35;84.29;99376.34;4079834;29;20241;-84
2022/01/21 00:15:23;;;;;;;9.32;5.22;;;;;;;3.33;84.85;99366.91;4080578;29;20202;-84
2022/01/21 00:17:26;;;;;;;11.18;4.60;;;;;;;3.29;84.84;99368.72;4074700;29;20214;-84
2022/01/21 00:19:37;;;;;;;6.97;3.88;;;;;;;3.31;84.52;99363.53;4076474;29;20389;-83
2022/01/21 00:31:05;;;;;;;7.53;4.15;;;;;;;3.19;83.87;99380.94;4078696;29;20215;-84
2022/01/21 00:33:09;;;;;;;21.40;10.90;;;;;;;3.11;83.89;99380.25;4081344;29;20711;-84
2022/01/21 00:35:14;;;;;;;11.35;5.15;;;;;;;3.10;83.95;99376.81;4078680;29;20218;-84
2022/01/21 00:37:18;;;;;;;12.82;5.15;;;;;;;3.13;84.64;99381.06;4065436;29;20660;-84
2022/01/21 00:39:24;;;;;;;10.15;5.60;;;;;;;3.16;84.40;99387.03;4077795;29;20203;-84
2022/01/21 00:41:31;;;;;;;9.77;4.65;;;;;;;3.15;84.30;99390.47;4061407;29;20313;-84
2022/01/21 00:43:44;;;;;;;9.63;4.50;;;;;;;3.14;84.83;99393.06;4072997;29;20227;-84
2022/01/21 00:45:49;;;;;;;12.25;5.78;;;;;;;3.16;84.79;99394.75;4078163;29;20675;-84
2022/01/21 00:47:52;;;;;;;10.00;4.80;;;;;;;3.20;83.99;99387.81;4067147;29;20211;-84
2022/01/21 00:49:55;;;;;;;9.73;4.07;;;;;;;3.22;84.79;99378.31;4079062;29;20235;-84
2022/01/21 00:52:00;;;;;;;8.20;4.35;;;;;;;3.24;84.21;99371.41;4067599;29;20224;-84
2022/01/21 00:54:03;;;;;;;13.43;4.65;;;;;;;3.26;83.76;99369.66;4076048;29;20206;-83
2022/01/21 00:56:07;;;;;;;11.40;4.10;;;;;;;3.28;84.17;99373.91;4059989;29;20236;-84
2022/01/21 00:58:10;;;;;;;5.80;3.67;;;;;;;3.28;83.96;99377.31;4064350;29;20219;-83
2022/01/21 01:00:15;;;;;;;12.05;6.78;;;;;;;3.28;84.46;99390.22;4077962;29;20718;-83
2022/01/21 01:02:18;;;;;;;24.73;10.63;;;;;;;3.28;84.36;99397.94;4076048;28;20211;-83
2022/01/21 01:04:21;;;;;;;25.90;9.38;;;;;;;3.27;84.65;99391.97;4064504;29;20237;-82
2022/01/21 01:06:24;;;;;;;20.83;6.05;;;;;;;3.26;84.71;99401.41;4080664;29;20224;-83
2022/01/21 01:08:29;;;;;;;11.93;4.60;;;;;;;3.24;84.46;99400.59;4077737;29;20207;-81
2022/01/21 01:10:46;;;;;;;9.27;4.50;;;;;;;3.19;84.23;99396.41;4081411;29;20318;-81
2022/01/21 01:19:57;;;;;;;13.55;5.47;;;;;;;3.17;84.43;99399.00;4064354;29;20208;-82
2022/01/21 01:22:00;;;;;;;7.28;3.53;;;;;;;3.18;84.46;99408.44;4077200;29;20654;-82
2022/01/21 01:28:43;;;;;;;6.60;3.20;;;;;;;3.13;84.00;99397.38;4069816;29;20207;-83
2022/01/21 01:30:46;;;;;;;9.25;3.83;;;;;;;3.14;84.04;99405.94;4074505;29;20221;-83
2022/01/21 01:32:51;;;;;;;6.68;3.05;;;;;;;3.11;83.96;99411.16;4063297;29;20211;-82
2022/01/21 01:34:54;;;;;;;7.57;3.40;;;;;;;3.10;83.89;99409.47;4078112;29;20205;-83
2022/01/21 01:37:02;;;;;;;7.80;3.97;;;;;;;3.12;84.11;99412.88;4080192;29;20207;-83
2022/01/21 01:39:13;;;;;;;7.60;3.28;;;;;;;3.11;84.21;99418.88;4071254;29;20845;-83
2022/01/21 01:41:20;;;;;;;9.25;3.92;;;;;;;3.14;84.00;99421.41;4073666;29;20861;-83
2022/01/21 01:50:18;;;;;;;6.53;3.42;;;;;;;3.15;83.56;99417.97;4078531;29;20203;-83
2022/01/21 01:52:22;;;;;;;7.68;3.95;;;;;;;3.15;83.63;99415.38;4069970;29;20219;-82
2022/01/21 01:54:27;;;;;;;11.45;4.30;;;;;;;3.14;83.88;99411.09;4073561;29;20262;-83
2022/01/21 01:56:32;;;;;;;7.35;3.42;;;;;;;3.11;83.92;99403.44;4087188;29;20753;-82
2022/01/21 01:58:37;;;;;;;7.32;4.28;;;;;;;3.11;83.49;99411.16;4086101;29;20439;-82
2022/01/21 02:00:40;;;;;;;7.47;3.13;;;;;;;3.08;84.01;99406.94;4069795;29;20237;-83
2022/01/21 02:02:43;;;;;;;9.18;3.95;;;;;;;3.08;83.87;99400.91;4085316;29;20230;-83
2022/01/21 02:04:49;;;;;;;12.00;4.35;;;;;;;3.07;84.29;99402.66;4074778;29;20237;-83
2022/01/21 02:06:52;;;;;;;11.77;3.67;;;;;;;3.08;83.99;99400.91;4073521;29;20199;-82
2022/01/21 02:08:55;;;;;;;9.80;3.45;;;;;;;3.09;83.68;99390.56;4055549;29;20212;-82
2022/01/21 02:11:00;;;;;;;7.03;3.25;;;;;;;3.11;83.77;99395.69;4067320;29;20210;-83
2022/01/21 02:13:06;;;;;;;7.10;3.50;;;;;;;3.06;83.12;99395.78;4070630;29;20824;-82
2022/01/21 02:15:09;;;;;;;6.70;3.35;;;;;;;3.05;83.12;99400.97;4069317;29;20713;-82
2022/01/21 02:21:27;;;;;;;5.40;3.08;;;;;;;3.02;83.17;99399.31;4069395;29;20767;-82
2022/01/21 02:21:57;;;;;;;10.50;3.80;;;;;;;2.86;83.55;99409.91;4021278;29;20222;-82
2022/01/21 02:24:03;;;;;;;10.43;4.10;;;;;;;2.86;84.01;99405.59;4068977;29;20208;-82
2022/01/21 02:26:06;;;;;;;7.50;3.50;;;;;;;2.86;84.24;99410.75;4073154;29;20486;-82
2022/01/21 02:28:15;;;;;;;9.25;3.60;;;;;;;2.81;84.11;99417.69;4074681;29;20210;-83
2022/01/21 02:30:20;;;;;;;10.27;4.57;;;;;;;2.82;84.17;99416.81;4055132;29;20739;-83
2022/01/21 02:32:26;;;;;;;9.73;4.70;;;;;;;2.83;84.41;99412.53;4067515;29;20212;-82
2022/01/21 02:34:31;;;;;;;9.27;4.90;;;;;;;2.85;84.54;99415.91;4067892;29;20305;-82
2022/01/21 02:36:36;;;;;;;8.30;3.78;;;;;;;2.86;84.63;99417.63;4070824;29;20298;-83
2022/01/21 02:38:40;;;;;;;9.30;3.83;;;;;;;2.89;85.31;99415.00;4073612;29;20317;-82
2022/01/21 02:40:44;;;;;;;7.80;4.28;;;;;;;2.93;84.55;99419.19;4069445;29;20208;-83
2022/01/21 02:42:47;;;;;;;6.13;3.50;;;;;;;2.95;85.01;99409.75;4073088;29;20223;-83
2022/01/21 02:44:50;;;;;;;6.32;3.70;;;;;;;2.96;84.57;99412.28;4074356;29;20251;-83
2022/01/21 02:46:57;;;;;;;10.25;3.55;;;;;;;2.99;84.87;99407.09;4073419;29;20239;-83
2022/01/21 02:49:01;;;;;;;6.30;3.60;;;;;;;3.03;84.86;99413.03;4067410;29;20206;-82
2022/01/21 02:51:07;;;;;;;9.05;3.45;;;;;;;3.04;84.66;99412.16;4054036;29;20212;-83
2022/01/21 02:53:22;;;;;;;11.60;4.00;;;;;;;3.07;84.57;99414.69;4059256;29;20208;-83
2022/01/21 02:55:27;;;;;;;9.07;3.25;;;;;;;3.07;84.28;99423.25;4074780;29;20214;-83
2022/01/21 02:57:30;;;;;;;6.53;3.65;;;;;;;3.08;84.58;99416.38;4069185;29;20203;-83
2022/01/21 02:59:34;;;;;;;5.18;3.25;;;;;;;3.09;84.29;99426.66;4080868;29;20259;-83
2022/01/21 03:01:40;;;;;;;6.03;3.60;;;;;;;3.10;83.97;99430.09;4070384;29;20207;-82
2022/01/21 03:03:45;;;;;;;8.00;3.92;;;;;;;3.11;84.80;99431.78;4054123;29;20267;-83
2022/01/21 03:05:50;;;;;;;9.93;4.50;;;;;;;3.10;84.35;99424.94;4084925;29;20230;-83
2022/01/21 03:07:53;;;;;;;9.13;3.10;;;;;;;3.09;84.05;99429.22;4057571;29;20199;-82
2022/01/21 03:09:56;;;;;;;8.45;3.72;;;;;;;3.11;84.23;99431.78;4057704;29;20243;-82
2022/01/21 03:12:01;;;;;;;7.82;4.15;;;;;;;3.13;83.96;99435.16;4065978;29;20592;-83
2022/01/21 03:14:04;;;;;;;8.18;3.63;;;;;;;3.16;83.85;99440.25;4060111;29;20216;-82
2022/01/21 03:16:07;;;;;;;5.55;3.33;;;;;;;3.14;83.95;99442.88;4073679;29;20227;-82
2022/01/21 03:18:10;;;;;;;9.32;3.80;;;;;;;3.17;84.09;99436.81;4072439;29;20210;-82
2022/01/21 03:20:14;;;;;;;13.93;3.95;;;;;;;3.17;83.97;99432.50;4075200;29;20304;-83
2022/01/21 03:22:17;;;;;;;7.35;3.80;;;;;;;3.14;84.46;99440.28;4062204;29;20216;-83
2022/01/21 03:24:20;;;;;;;8.77;4.20;;;;;;;3.13;84.55;99435.16;4075553;29;20210;-82
2022/01/21 03:26:26;;;;;;;7.38;3.83;;;;;;;3.14;84.27;99434.28;4062271;29;20260;-82
2022/01/21 03:28:31;;;;;;;10.05;3.90;;;;;;;3.13;84.24;99430.88;4073603;29;20221;-82
2022/01/21 03:30:36;;;;;;;7.20;3.22;;;;;;;3.13;84.25;99435.16;4072589;29;20790;-82
2022/01/21 03:32:44;;;;;;;9.60;3.90;;;;;;;3.10;84.63;99442.97;4072358;29;20232;-82
2022/01/21 03:34:47;;;;;;;8.68;4.00;;;;;;;3.09;84.60;99449.00;4076062;29;20599;-83
2022/01/21 03:36:53;;;;;;;5.18;3.67;;;;;;;3.10;84.44;99450.69;4072594;29;20206;-82
2022/01/21 03:38:57;;;;;;;9.85;3.80;;;;;;;3.11;83.77;99458.41;4056359;29;20863;-83
2022/01/21 03:41:01;;;;;;;6.13;3.28;;;;;;;3.12;84.34;99454.94;4072887;29;20301;-85
2022/01/21 03:43:04;;;;;;;6.60;3.45;;;;;;;3.16;84.38;99460.88;4073314;29;20746;-83
2022/01/21 03:45:12;;;;;;;8.73;4.15;;;;;;;3.14;83.75;99453.16;4070940;29;20294;-83
2022/01/21 03:47:15;;;;;;;7.22;3.70;;;;;;;3.13;84.36;99448.03;4073990;29;20238;-82
2022/01/21 03:49:18;;;;;;;7.57;3.55;;;;;;;3.13;84.31;99460.91;4069653;29;21223;-82
2022/01/21 03:51:21;;;;;;;9.80;3.90;;;;;;;3.13;83.83;99461.78;4069951;29;20225;-82
2022/01/21 03:53:26;;;;;;;11.02;3.95;;;;;;;3.09;84.30;99454.97;4072038;29;20296;-82
2022/01/21 03:55:30;;;;;;;9.02;4.38;;;;;;;3.08;84.19;99452.44;4068490;29;20206;-82
2022/01/21 03:57:33;;;;;;;8.93;3.80;;;;;;;3.07;84.47;99455.91;4076359;29;20213;-81
2022/01/21 03:59:37;;;;;;;10.07;3.72;;;;;;;3.05;84.86;99453.34;4068214;29;20300;-82
2022/01/21 04:01:41;;;;;;;9.68;4.20;;;;;;;3.04;85.12;99454.22;4056168;29;20297;-82
2022/01/21 04:03:46;;;;;;;7.50;3.97;;;;;;;3.06;84.94;99460.19;4074533;29;20264;-82
2022/01/21 04:05:50;;;;;;;7.50;4.00;;;;;;;3.06;84.71;99460.19;4072417;29;20220;-82
2022/01/21 04:07:53;;;;;;;10.88;3.90;;;;;;;3.07;84.71;99456.75;4059566;29;20203;-83
2022/01/21 04:09:56;;;;;;;9.95;4.30;;;;;;;3.06;84.99;99459.34;4075129;29;20660;-83
2022/01/21 04:11:59;;;;;;;9.98;4.13;;;;;;;3.05;84.77;99455.06;4058132;29;20242;-82
2022/01/21 04:14:02;;;;;;;10.80;4.40;;;;;;;3.04;84.70;99461.13;4069048;29;20381;-82
2022/01/21 04:16:06;;;;;;;8.38;3.97;;;;;;;3.03;85.17;99455.09;4070487;29;20201;-82
2022/01/21 04:18:13;;;;;;;13.75;4.00;;;;;;;3.05;85.23;99457.63;4073238;29;20207;-82
2022/01/21 04:20:18;;;;;;;9.55;3.80;;;;;;;3.07;84.68;99461.06;4058932;29;20286;-82
2022/01/21 04:22:21;;;;;;;12.30;3.72;;;;;;;3.08;85.03;99470.47;4070580;29;20245;-82
2022/01/21 04:24:24;;;;;;;10.35;3.40;;;;;;;3.07;84.16;99469.63;4060897;29;20247;-83
2022/01/21 04:26:28;;;;;;;9.63;3.75;;;;;;;3.06;84.33;99474.81;4074540;29;20227;-82
2022/01/21 04:28:41;;;;;;;7.75;3.60;;;;;;;2.99;84.64;99476.63;4059455;29;20853;-82
2022/01/21 04:30:44;;;;;;;9.45;5.95;;;;;;;2.95;83.96;99472.41;4069721;29;20214;-83
2022/01/21 04:32:47;;;;;;;8.48;3.65;;;;;;;2.94;83.91;99481.00;4076478;29;20213;-83
2022/01/21 04:35:00;;;;;;;10.45;4.10;;;;;;;2.94;84.22;99475.00;4074018;29;20284;-82
2022/01/21 04:37:06;;;;;;;11.65;4.90;;;;;;;2.94;84.10;99472.44;4069864;29;20222;-82
2022/01/21 04:39:25;;;;;;;6.88;4.35;;;;;;;2.96;84.23;99483.53;4067806;29;20243;-82
2022/01/21 04:41:53;;;;;;;10.27;3.30;;;;;;;2.93;83.71;99475.88;4069526;29;20210;-83
2022/01/21 04:48:38;;;;;;;7.05;3.50;;;;;;;2.85;83.80;99477.72;4069365;29;20258;-82
2022/01/21 04:50:53;;;;;;;8.15;3.92;;;;;;;2.86;83.63;99489.75;4058052;29;20204;-82
2022/01/21 04:52:56;;;;;;;6.93;3.70;;;;;;;2.83;83.89;99493.19;4070745;29;20214;-82
2022/01/21 04:55:12;;;;;;;7.90;3.50;;;;;;;2.85;83.52;99490.59;4058110;29;20255;-82
2022/01/21 04:57:15;;;;;;;7.43;3.70;;;;;;;2.88;84.04;99485.41;4073527;29;20225;-82
2022/01/21 04:59:18;;;;;;;11.02;3.80;;;;;;;2.89;84.03;99494.84;4057467;29;20218;-82
2022/01/21 05:01:21;;;;;;;14.40;6.05;;;;;;;2.89;83.94;99493.09;4073012;29;20658;-82
2022/01/21 05:03:25;;;;;;;7.65;3.65;;;;;;;2.87;84.36;99483.69;4077087;29;20276;-83
2022/01/21 05:05:29;;;;;;;10.02;4.43;;;;;;;2.87;83.97;99489.72;4077763;29;20214;-82
2022/01/21 05:07:37;;;;;;;9.40;3.72;;;;;;;2.85;83.57;99496.59;4072989;29;20234;-83
2022/01/21 05:09:40;;;;;;;11.10;3.85;;;;;;;2.86;83.81;99498.31;4075270;29;20210;-82
2022/01/21 05:11:43;;;;;;;5.63;3.55;;;;;;;2.92;83.62;99497.38;4067175;29;20229;-82
2022/01/21 05:13:54;;;;;;;10.55;3.63;;;;;;;2.91;84.13;99501.66;4089146;29;20229;-83
2022/01/21 05:16:06;;;;;;;13.98;4.47;;;;;;;2.97;84.13;99506.72;4060150;29;20278;-83
2022/01/21 05:18:09;;;;;;;12.15;4.63;;;;;;;2.99;84.00;99511.84;4062104;29;20254;-83
2022/01/21 05:20:31;;;;;;;5.90;3.65;;;;;;;2.97;83.94;99521.31;4059733;29;20782;-82
2022/01/21 05:22:51;;;;;;;8.05;4.70;;;;;;;2.96;83.60;99524.75;4067540;29;20298;-84
2022/01/21 05:24:55;;;;;;;9.70;4.57;;;;;;;2.93;83.93;99519.66;4086584;29;20682;-84
2022/01/21 05:27:00;;;;;;;6.90;4.15;;;;;;;2.96;83.80;99515.34;4074258;29;20296;-82
2022/01/21 05:29:15;;;;;;;8.05;4.60;;;;;;;2.99;83.97;99529.88;4059963;29;20218;-83
2022/01/21 05:31:28;;;;;;;8.85;4.35;;;;;;;3.01;84.27;99533.28;4071212;29;20210;-83
2022/01/21 05:33:57;;;;;;;9.05;4.88;;;;;;;2.94;83.92;99531.66;4065507;29;20262;-82
2022/01/21 05:36:13;;;;;;;8.57;4.35;;;;;;;2.91;83.98;99521.41;4069796;29;20637;-82
2022/01/21 05:38:36;;;;;;;9.77;5.03;;;;;;;2.92;84.04;99525.72;4071811;29;20227;-83
2022/01/21 05:40:59;;;;;;;8.55;4.22;;;;;;;2.91;84.60;99539.44;4076354;29;21099;-82
2022/01/21 05:43:19;;;;;;;9.57;4.30;;;;;;;2.91;84.39;99532.56;4068466;29;20305;-82
2022/01/21 05:48:03;;;;;;;7.93;4.65;;;;;;;2.91;83.83;99531.72;4075615;29;20246;-82
2022/01/21 05:50:35;;;;;;;14.48;5.30;;;;;;;2.96;84.41;99537.66;4042863;29;20217;-82
2022/01/21 05:53:12;;;;;;;12.57;5.15;;;;;;;2.97;83.99;99544.50;4074023;29;20214;-83
2022/01/21 05:55:39;;;;;;;10.32;5.25;;;;;;;3.01;84.25;99546.19;4083595;29;20216;-83
2022/01/21 05:57:51;;;;;;;10.30;4.75;;;;;;;3.00;84.22;99541.88;4075409;29;20217;-82
2022/01/21 05:59:54;;;;;;;12.10;5.55;;;;;;;2.98;84.50;99547.06;4075160;29;20241;-82
2022/01/21 06:01:58;;;;;;;7.80;4.95;;;;;;;3.05;84.70;99550.38;4075970;28;20741;-82
2022/01/21 06:04:02;;;;;;;13.40;5.78;;;;;;;3.06;83.66;99545.22;4070366;29;20563;-82
2022/01/21 06:06:05;;;;;;;12.75;5.93;;;;;;;3.08;83.96;99545.19;4060782;29;20222;-84
2022/01/21 06:08:08;;;;;;;11.75;5.22;;;;;;;3.12;84.04;99555.41;4060160;29;20223;-85
2022/01/21 06:10:11;;;;;;;9.27;4.90;;;;;;;3.12;83.92;99558.00;4073308;29;20285;-85
2022/01/21 06:12:15;;;;;;;12.18;5.25;;;;;;;3.12;83.96;99558.00;4070797;29;20238;-85
2022/01/21 06:14:19;;;;;;;9.57;5.28;;;;;;;3.14;83.91;99545.94;4068197;29;20215;-82
2022/01/21 06:16:23;;;;;;;9.65;5.30;;;;;;;3.10;83.99;99553.75;4056742;29;20211;-83
2022/01/21 06:18:26;;;;;;;10.30;5.85;;;;;;;3.03;84.13;99552.97;4072767;29;20208;-82
2022/01/21 06:20:30;;;;;;;8.55;5.07;;;;;;;3.01;84.33;99553.91;4067766;29;20744;-83
2022/01/21 06:22:33;;;;;;;11.52;5.47;;;;;;;2.99;84.33;99566.81;4071188;29;20301;-82
2022/01/21 06:24:36;;;;;;;11.52;5.97;;;;;;;3.01;84.29;99569.34;4053998;29;20228;-82
2022/01/21 06:26:40;;;;;;;12.90;6.60;;;;;;;3.04;84.22;99569.31;4066805;29;20216;-83
2022/01/21 06:28:44;;;;;;;8.93;5.55;;;;;;;3.08;84.46;99573.53;4074843;29;20222;-82
2022/01/21 06:30:49;;;;;;;10.18;5.47;;;;;;;3.09;84.24;99581.22;4059175;29;20754;-83
2022/01/21 06:32:52;;;;;;;11.50;5.95;;;;;;;3.11;85.22;99583.78;4073231;29;20801;-83
2022/01/21 06:34:55;;;;;;;8.68;5.50;;;;;;;3.14;84.97;99588.91;4068727;29;20214;-82
2022/01/21 06:36:59;;;;;;;10.32;5.55;;;;;;;3.14;84.38;99592.31;4058435;29;20707;-82
2022/01/21 06:39:02;;;;;;;11.32;5.70;;;;;;;3.16;84.78;99594.88;4058217;29;20279;-81
2022/01/21 06:41:06;;;;;;;9.88;5.20;;;;;;;3.17;84.88;99596.56;4072013;29;20203;-82
2022/01/21 06:43:09;;;;;;;11.93;5.70;;;;;;;3.15;84.20;99588.88;4076563;29;20203;-82
2022/01/21 06:45:13;;;;;;;10.85;5.97;;;;;;;3.06;84.02;99589.00;4054658;29;20222;-82
2022/01/21 06:47:18;;;;;;;10.52;5.88;;;;;;;3.02;83.85;99578.78;4075162;29;20223;-83
2022/01/21 06:49:21;;;;;;;9.68;5.70;;;;;;;2.99;84.75;99586.53;4075482;29;20222;-82
2022/01/21 06:51:25;;;;;;;11.00;5.80;;;;;;;2.93;84.94;99590.06;4061792;29;20217;-81
2022/01/21 06:53:28;;;;;;;14.20;6.32;;;;;;;2.92;84.60;99597.81;4074717;29;20253;-82
2022/01/21 06:55:31;;;;;;;17.20;6.35;;;;;;;2.85;84.95;99591.88;4075124;29;20197;-84
2022/01/21 06:57:38;;;;;;;12.18;6.30;;;;;;;2.84;84.96;99597.06;4071804;29;20207;-84
2022/01/21 06:59:41;;;;;;;8.63;6.00;;;;;;;2.75;85.07;99596.34;4059640;29;20215;-82
2022/01/21 07:01:46;;;;;;;9.40;6.63;;;;;;;2.72;84.67;99586.09;4061384;29;20239;-82
2022/01/21 07:03:50;;;;;;;12.90;6.75;;;;;;;2.69;85.29;99581.84;4075597;29;20229;-82
2022/01/21 07:05:53;;;;;;;12.60;6.22;;;;;;;2.67;85.32;99588.72;4076450;29;20226;-82
2022/01/21 07:07:57;;;;;;;15.40;6.65;;;;;;;2.64;85.29;99585.34;4074669;29;20238;-82
2022/01/21 07:10:01;;;;;;;14.57;7.53;;;;;;;2.62;85.27;99584.53;4074155;29;20278;-82
2022/01/21 07:12:05;;;;;;;10.70;6.70;;;;;;;2.61;85.29;99588.81;4070704;29;20759;-82
2022/01/21 07:14:08;;;;;;;10.20;7.30;;;;;;;2.63;85.40;99596.50;4074875;29;20210;-85
2022/01/21 07:16:11;;;;;;;13.32;6.68;;;;;;;2.64;85.72;99588.75;4073470;29;20706;-83
2022/01/21 07:18:16;;;;;;;13.60;7.28;;;;;;;2.61;85.13;99583.66;4060389;29;20207;-82
2022/01/21 07:20:19;;;;;;;13.05;6.75;;;;;;;2.62;85.46;99587.09;4081181;29;20231;-82
2022/01/21 07:22:23;;;;;;;14.38;7.03;;;;;;;2.63;85.34;99591.34;4079399;29;20234;-81
2022/01/21 07:24:26;;;;;;;16.70;7.82;;;;;;;2.63;85.29;99591.34;4080179;29;20228;-81
2022/01/21 07:26:30;;;;;;;16.42;7.50;;;;;;;2.60;85.58;99605.13;4073874;29;20314;-81
2022/01/21 07:28:34;;;;;;;18.10;7.20;;;;;;;2.67;86.10;99604.16;4070776;29;20322;-81
2022/01/21 07:30:37;;;;;;;13.43;6.22;;;;;;;2.71;85.84;99612.72;4079851;29;20216;-81
2022/01/21 07:32:40;;;;;;;14.75;7.13;;;;;;;2.80;86.31;99614.28;4089023;29;20253;-85
2022/01/21 07:34:45;;;;;;;11.05;6.72;;;;;;;2.94;85.86;99616.69;4060038;29;20208;-82
2022/01/21 07:36:48;;;;;;;15.18;6.88;;;;;;;3.01;85.69;99615.72;4074327;29;20317;-81
2022/01/21 07:38:51;;;;;;;16.63;9.07;;;;;;;3.07;85.83;99618.22;4068383;29;20227;-81
2022/01/21 07:40:54;;;;;;;20.40;8.35;;;;;;;3.03;85.36;99617.38;4063436;29;20211;-80
2022/01/21 07:42:57;;;;;;;11.55;6.70;;;;;;;3.06;85.36;99611.34;4055844;29;20560;-82
2022/01/21 07:45:00;;;;;;;9.20;6.13;;;;;;;3.08;84.98;99617.31;4069192;29;20217;-81
2022/01/21 07:47:04;;;;;;;15.05;7.07;;;;;;;3.09;85.29;99619.88;4071478;29;20218;-80
2022/01/21 07:49:08;;;;;;;18.00;7.07;;;;;;;3.15;85.00;99618.94;4075215;29;20222;-81
2022/01/21 07:51:12;;;;;;;13.25;6.80;;;;;;;3.17;84.99;99619.78;4071966;29;20255;-80
2022/01/21 07:53:15;;;;;;;16.40;7.43;;;;;;;3.22;85.14;99613.69;4073827;29;20214;-81
2022/01/21 07:55:18;;;;;;;11.23;6.90;;;;;;;3.27;84.78;99609.31;4076902;29;20238;-81
2022/01/21 07:57:22;;;;;;;11.50;6.80;;;;;;;3.30;84.77;99610.09;4072231;29;20676;-81
2022/01/21 07:59:25;;;;;;;11.18;6.60;;;;;;;3.28;84.89;99609.28;4068667;29;20734;-80
2022/01/21 08:01:28;;;;;;;9.57;5.75;;;;;;;3.25;84.38;99616.22;4067459;29;20215;-80
2022/01/21 08:03:32;;;;;;;15.10;6.93;;;;;;;3.20;83.94;99623.13;4070540;29;20688;-80
2022/01/21 08:05:35;;;;;;;12.52;6.45;;;;;;;3.24;84.05;99621.41;4060676;29;20266;-80
2022/01/21 08:07:39;;;;;;;18.75;7.47;;;;;;;3.22;84.21;99617.97;4075706;29;20211;-79
2022/01/21 08:09:44;;;;;;;12.85;6.57;;;;;;;3.20;85.19;99620.56;4069429;29;20239;-80
2022/01/21 08:11:47;;;;;;;14.00;6.43;;;;;;;3.27;84.99;99628.19;4068477;29;20250;-80
2022/01/21 08:13:50;;;;;;;13.80;6.10;;;;;;;3.32;84.46;99621.25;4059172;29;20223;-82
2022/01/21 08:15:53;;;;;;;16.13;6.10;;;;;;;3.34;85.07;99628.97;4071541;29;20215;-82
2022/01/21 08:17:56;;;;;;;13.50;6.85;;;;;;;3.34;84.72;99621.22;4068449;29;20225;-81
2022/01/21 08:19:59;;;;;;;13.38;6.95;;;;;;;3.34;84.27;99629.81;4070542;29;20209;-81
2022/01/21 08:22:03;;;;;;;16.27;7.25;;;;;;;3.30;84.63;99624.72;4070421;29;20289;-85
2022/01/21 08:24:09;;;;;;;14.88;6.32;;;;;;;3.29;84.12;99629.03;4072264;29;20302;-83
2022/01/21 08:26:12;;;;;;;15.27;8.13;;;;;;;3.38;83.85;99628.91;4079259;29;20210;-83
2022/01/21 08:28:15;;;;;;;21.45;10.35;;;;;;;3.40;84.37;99624.56;4078747;29;20632;-83
2022/01/21 08:30:19;;;;;;;20.25;10.80;;;;;;;3.36;84.23;99622.06;4072860;29;20221;-82
2022/01/21 08:32:22;;;;;;;14.10;7.22;;;;;;;3.33;83.85;99619.53;4069627;29;20241;-82
2022/01/21 08:34:25;;;;;;;11.60;6.65;;;;;;;3.31;84.59;99608.41;4073268;29;20298;-83
2022/01/21 08:36:28;;;;;;;10.07;6.72;;;;;;;3.41;83.95;99617.66;4074659;28;20199;-83
2022/01/21 08:38:31;;;;;;;19.88;6.78;;;;;;;3.51;83.83;99611.50;4072320;29;20219;-83
2022/01/21 08:40:36;;;;;;;14.55;8.45;;;;;;;3.58;84.04;99618.25;4074218;29;20259;-83
2022/01/21 08:42:40;;;;;;;11.25;6.70;;;;;;;3.64;84.05;99621.59;4071894;29;20679;-83
2022/01/21 08:44:43;;;;;;;13.55;6.80;;;;;;;3.70;83.68;99621.50;4059928;29;20295;-83
2022/01/21 08:46:46;;;;;;;12.88;6.80;;;;;;;3.75;83.76;99625.66;4079198;29;20261;-83
2022/01/21 08:49:10;;;;;;;14.52;6.85;;;;;;;3.80;84.14;99630.75;4078140;29;20218;-83
2022/01/21 08:51:19;;;;;;;12.15;6.18;;;;;;;3.86;82.54;99640.97;4071504;29;20308;-83
2022/01/21 08:55:46;;;;;;;13.93;6.63;;;;;;;3.89;82.09;99633.19;4071568;28;20211;-83
2022/01/21 08:57:49;;;;;;;11.35;6.63;;;;;;;3.89;82.47;99635.75;4070284;29;20208;-83
2022/01/21 08:59:52;;;;;;;14.27;6.60;;;;;;;3.86;82.60;99633.22;4070287;29;20210;-83
2022/01/21 09:01:56;;;;;;;17.05;6.95;;;;;;;3.82;81.99;99634.19;4061634;29;20313;-83
2022/01/21 09:03:59;;;;;;;15.27;6.57;;;;;;;3.86;81.91;99638.38;4079007;29;20606;-83
2022/01/21 09:06:02;;;;;;;12.07;6.63;;;;;;;3.94;83.03;99644.25;4072412;29;20219;-83
2022/01/21 09:08:06;;;;;;;12.63;6.72;;;;;;;4.05;82.35;99642.38;4079733;29;20214;-83
2022/01/21 09:10:10;;;;;;;15.90;7.07;;;;;;;4.13;81.99;99643.91;4077892;29;20231;-83
2022/01/21 09:12:15;;;;;;;12.82;7.00;;;;;;;4.27;82.43;99654.84;4077841;29;20289;-83
2022/01/21 09:14:18;;;;;;;13.77;7.30;;;;;;;4.32;81.49;99655.63;4072049;29;20215;-83
2022/01/21 09:16:21;;;;;;;11.63;6.25;;;;;;;4.34;82.31;99649.53;4088673;29;20210;-83
2022/01/21 09:18:25;;;;;;;16.15;7.35;;;;;;;4.34;80.77;99646.94;4075408;29;20207;-83
2022/01/21 09:20:29;;;;;;;14.23;7.22;;;;;;;4.36;82.31;99652.06;4075404;29;20199;-83
2022/01/21 09:22:32;;;;;;;15.63;6.90;;;;;;;4.41;81.50;99645.97;4075171;29;20216;-83
2022/01/21 09:24:35;;;;;;;10.43;7.07;;;;;;;4.39;80.96;99647.72;4071767;29;20294;-83
2022/01/21 09:26:38;;;;;;;14.00;7.00;;;;;;;4.41;81.33;99651.13;4076458;29;20214;-83
2022/01/21 09:28:43;;;;;;;17.02;7.20;;;;;;;4.45;82.16;99652.78;4076275;29;20313;-83
2022/01/21 09:30:46;;;;;;;17.83;8.10;;;;;;;4.48;81.75;99652.72;4070692;29;20248;-83
2022/01/21 09:32:49;;;;;;;19.63;7.00;;;;;;;4.51;81.65;99656.94;4072823;29;20690;-83
2022/01/21 09:34:52;;;;;;;18.48;6.78;;;;;;;4.56;81.10;99648.25;4059224;29;20220;-83
2022/01/21 09:36:58;;;;;;;15.52;8.05;;;;;;;4.61;80.87;99649.00;4053528;29;20235;-83
2022/01/21 09:39:02;;;;;;;13.13;6.93;;;;;;;4.55;80.41;99649.13;4076078;29;20246;-83
2022/01/21 09:41:06;;;;;;;15.20;7.60;;;;;;;4.53;80.16;99650.88;4073173;29;20245;-83
2022/01/21 09:43:10;;;;;;;18.00;6.68;;;;;;;4.46;80.53;99644.13;4073138;29;20250;-83
2022/01/21 09:45:18;;;;;;;12.82;7.55;;;;;;;4.44;80.10;99645.06;4072100;29;20246;-83
2022/01/21 09:47:21;;;;;;;15.13;7.80;;;;;;;4.41;80.54;99645.97;4073736;29;20315;-83
2022/01/21 09:49:27;;;;;;;18.63;8.15;;;;;;;4.52;80.68;99654.34;4070985;29;20238;-83
2022/01/21 09:51:32;;;;;;;14.52;7.30;;;;;;;4.64;80.40;99650.69;4071252;29;20212;-84
2022/01/21 09:53:36;;;;;;;21.27;8.02;;;;;;;4.72;80.63;99667.69;4072677;29;20687;-83
2022/01/21 09:55:39;;;;;;;13.95;8.57;;;;;;;4.79;79.93;99666.72;4073041;29;20215;-83
2022/01/21 09:57:43;;;;;;;19.55;7.88;;;;;;;4.78;80.41;99677.91;4058838;29;20211;-85
2022/01/21 09:59:46;;;;;;;14.05;8.80;;;;;;;4.74;80.43;99681.47;4072158;29;20210;-82
2022/01/21 10:01:52;;;;;;;13.70;8.25;;;;;;;4.64;79.70;99682.50;4074515;29;20211;-84
2022/01/21 10:03:56;;;;;;;14.48;8.10;;;;;;;4.59;80.05;99697.25;4074906;29;20219;-84
2022/01/21 10:06:02;;;;;;;11.50;7.50;;;;;;;4.56;80.12;99697.31;4063084;29;20211;-85
2022/01/21 10:08:07;;;;;;;17.88;8.95;;;;;;;4.53;80.52;99696.53;4072813;29;20727;-83
2022/01/21 10:10:10;;;;;;;16.90;7.45;;;;;;;4.52;81.48;99689.66;4074541;29;20249;-83
2022/01/21 10:12:25;;;;;;;16.05;7.38;;;;;;;4.52;80.13;99690.50;4077127;29;20839;-83
2022/01/21 10:14:30;;;;;;;20.77;8.57;;;;;;;4.53;80.39;99689.63;4072124;29;20591;-83
2022/01/21 10:16:33;;;;;;;14.93;9.02;;;;;;;4.57;80.88;99682.66;4057523;29;20229;-83
2022/01/21 10:18:37;;;;;;;13.55;7.95;;;;;;;4.57;80.03;99687.81;4068281;29;20211;-82
2022/01/21 10:20:59;;;;;;;16.27;7.30;;;;;;;4.58;79.88;99690.38;4071065;29;20206;-83
2022/01/21 10:23:06;;;;;;;16.55;7.65;;;;;;;4.58;79.97;99690.38;4069177;29;20254;-83
2022/01/21 10:25:12;;;;;;;17.98;8.20;;;;;;;4.57;80.05;99683.53;4080867;29;20301;-83
2022/01/21 10:27:23;;;;;;;20.02;7.40;;;;;;;4.57;81.12;99680.94;4083913;28;20605;-83
2022/01/21 10:29:36;;;;;;;18.10;9.30;;;;;;;4.60;80.58;99686.06;4088866;29;20249;-83
2022/01/21 10:31:51;;;;;;;15.68;7.50;;;;;;;4.65;80.92;99680.81;4060510;29;20330;-83
2022/01/21 10:33:59;;;;;;;13.93;7.55;;;;;;;4.68;79.69;99681.59;4071096;29;20215;-83